createdAt,value
2018-12-29T00:01:11.298Z,103582.52
2018-12-29T00:03:40.644Z,103580.38
2018-12-29T00:06:10.012Z,103571.28
2018-12-29T00:08:39.391Z,103573.45
2018-12-29T00:11:08.758Z,103579.07
2018-12-29T00:13:38.088Z,103568.25
2018-12-29T00:16:07.445Z,103564.81
2018-12-29T00:18:36.810Z,103569.55
2018-12-29T00:21:06.184Z,103574.32
2018-12-29T00:23:35.548Z,103573.47
2018-12-29T00:26:04.923Z,103565.25
2018-12-29T00:28:34.332Z,103563.95
2018-12-29T00:31:03.671Z,103569.59
2018-12-29T00:33:33.035Z,103562.22
2018-12-29T00:36:02.398Z,103552.25
2018-12-29T00:38:31.737Z,103564.39
2018-12-29T00:41:01.106Z,103564.41
2018-12-29T00:43:30.479Z,103564.41
2018-12-29T00:45:59.825Z,103566.13
2018-12-29T00:48:29.986Z,103564.83
2018-12-29T00:50:59.390Z,103567.88
2018-12-29T00:53:28.773Z,103569.18
2018-12-29T00:55:58.106Z,103571.36
2018-12-29T00:58:27.473Z,103564.40
2018-12-29T01:00:56.829Z,103569.17
2018-12-29T01:03:26.167Z,103564.85
2018-12-29T01:05:55.538Z,103565.30
2018-12-29T01:08:24.901Z,103563.58
2018-12-29T01:10:54.265Z,103567.90
2018-12-29T01:13:23.601Z,103564.00
2018-12-29T01:15:53.073Z,103559.22
2018-12-29T01:18:22.453Z,103563.12
2018-12-29T01:20:51.789Z,103555.33
2018-12-29T01:23:21.171Z,103555.33
2018-12-29T01:25:50.555Z,103560.09
2018-12-29T01:28:20.597Z,103554.05
2018-12-29T01:30:49.928Z,103560.55
2018-12-29T01:33:19.307Z,103554.92
2018-12-29T01:35:48.658Z,103550.14
2018-12-29T01:38:18.048Z,103549.30
2018-12-29T01:40:47.390Z,103541.91
2018-12-29T01:43:16.769Z,103549.71
2018-12-29T01:45:46.149Z,103551.88
2018-12-29T01:48:15.550Z,103559.26
2018-12-29T01:50:44.898Z,103549.31
2018-12-29T01:53:14.266Z,103554.51
2018-12-29T01:55:43.619Z,103548.42
2018-12-29T01:58:13.007Z,103553.23
2018-12-29T02:00:42.382Z,103548.87
2018-12-29T02:03:11.752Z,103550.17
2018-12-29T02:05:41.134Z,103542.40
2018-12-29T02:08:10.509Z,103553.67
2018-12-29T02:10:39.894Z,103573.16
2018-12-29T02:13:09.258Z,103581.83
2018-12-29T02:15:38.607Z,103576.17
2018-12-29T02:18:07.988Z,103577.50
2018-12-29T02:20:37.345Z,103584.88
2018-12-29T02:23:06.683Z,103590.08
2018-12-29T02:25:36.059Z,103584.42
2018-12-29T02:28:05.416Z,103594.40
2018-12-29T02:30:34.768Z,103582.25
2018-12-29T02:33:04.119Z,103583.55
2018-12-29T02:35:33.490Z,103575.34
2018-12-29T02:38:02.846Z,103579.23
2018-12-29T02:40:32.217Z,103574.03
2018-12-29T02:43:01.604Z,103570.98
2018-12-29T02:45:33.425Z,103564.94
2018-12-29T02:48:02.062Z,103566.23
2018-12-29T02:50:31.411Z,103564.91
2018-12-29T02:53:01.158Z,103563.19
2018-12-29T02:55:30.500Z,103577.94
2018-12-29T02:57:59.894Z,103564.06
2018-12-29T03:00:29.232Z,103554.97
2018-12-29T03:02:58.596Z,103552.34
2018-12-29T03:05:27.963Z,103552.34
2018-12-29T03:07:57.355Z,103557.12
2018-12-29T03:10:26.710Z,103550.62
2018-12-29T03:12:56.169Z,103550.62
2018-12-29T03:15:25.501Z,103545.42
2018-12-29T03:17:54.840Z,103545.42
2018-12-29T03:20:24.239Z,103541.97
2018-12-29T03:22:53.584Z,103544.14
2018-12-29T03:25:22.945Z,103545.45
2018-12-29T03:27:52.294Z,103539.36
2018-12-29T03:30:21.675Z,103535.47
2018-12-29T03:32:51.047Z,103529.84
2018-12-29T03:35:20.398Z,103523.33
2018-12-29T03:37:49.825Z,103525.09
2018-12-29T03:40:19.175Z,103522.91
2018-12-29T03:42:48.501Z,103514.68
2018-12-29T03:45:17.861Z,103505.15
2018-12-29T03:47:47.214Z,103499.53
2018-12-29T03:50:16.585Z,103496.05
2018-12-29T03:52:45.931Z,103499.52
2018-12-29T03:55:15.303Z,103497.80
2018-12-29T03:57:44.671Z,103495.64
2018-12-29T04:00:14.034Z,103487.39
2018-12-29T04:02:43.394Z,103486.54
2018-12-29T04:05:12.745Z,103480.91
2018-12-29T04:07:42.107Z,103478.73
2018-12-29T04:10:15.353Z,103466.17
2018-12-29T04:13:04.323Z,103466.63
2018-12-29T04:15:33.764Z,103471.81
2018-12-29T04:18:03.107Z,103475.29
2018-12-29T04:20:32.458Z,103477.03
2018-12-29T04:23:01.840Z,103478.33
2018-12-29T04:25:31.210Z,103481.38
2018-12-29T04:28:00.566Z,103478.31
2018-12-29T04:30:29.917Z,103481.78
2018-12-29T04:32:59.282Z,103480.08
2018-12-29T04:35:28.606Z,103482.67
2018-12-29T04:37:57.982Z,103496.55
2018-12-29T04:40:27.342Z,103496.56
2018-12-29T04:42:56.723Z,103502.64
2018-12-29T04:45:26.086Z,103500.46
2018-12-29T04:47:55.426Z,103494.41
2018-12-29T04:50:24.807Z,103492.23
2018-12-29T04:52:54.145Z,103507.41
2018-12-29T04:55:23.513Z,103508.30
2018-12-29T04:57:52.846Z,103506.12
2018-12-29T05:00:22.197Z,103507.41
2018-12-29T05:02:51.578Z,103507.44
2018-12-29T05:05:20.909Z,103499.62
2018-12-29T05:07:50.272Z,103505.70
2018-12-29T05:10:19.625Z,103505.27
2018-12-29T05:12:48.988Z,103514.37
2018-12-29T05:15:18.331Z,103504.81
2018-12-29T05:17:48.324Z,103506.55
2018-12-29T05:20:17.701Z,103502.22
2018-12-29T05:22:47.082Z,103507.02
2018-12-29T05:25:16.421Z,103510.48
2018-12-29T05:27:45.784Z,103525.64
2018-12-29T05:30:15.092Z,103527.37
2018-12-29T05:32:44.463Z,103524.77
2018-12-29T05:35:15.261Z,103529.55
2018-12-29T05:37:44.664Z,103525.63
2018-12-29T05:40:14.028Z,103536.92
2018-12-29T05:42:43.369Z,103543.44
2018-12-29T05:45:12.764Z,103539.09
2018-12-29T05:47:42.104Z,103546.89
2018-12-29T05:50:11.471Z,103552.09
2018-12-29T05:52:40.830Z,103559.48
2018-12-29T05:55:10.171Z,103551.25
2018-12-29T05:57:39.550Z,103550.38
2018-12-29T06:00:08.994Z,103559.05
2018-12-29T06:02:38.340Z,103556.43
2018-12-29T06:05:07.678Z,103550.38
2018-12-29T06:07:37.019Z,103556.88
2018-12-29T06:10:06.382Z,103552.95
2018-12-29T06:12:35.739Z,103550.37
2018-12-29T06:15:05.209Z,103539.51
2018-12-29T06:17:34.580Z,103540.38
2018-12-29T06:20:03.984Z,103531.69
2018-12-29T06:22:33.355Z,103546.45
2018-12-29T06:25:02.831Z,103548.61
2018-12-29T06:27:32.187Z,103555.56
2018-12-29T06:30:01.573Z,103559.04
2018-12-29T06:32:30.930Z,103570.75
2018-12-29T06:35:00.299Z,103571.62
2018-12-29T06:37:29.679Z,103565.97
2018-12-29T06:39:59.023Z,103562.07
2018-12-29T06:42:28.399Z,103569.89
2018-12-29T06:44:57.745Z,103562.50
2018-12-29T06:47:27.118Z,103571.16
2018-12-29T06:49:57.007Z,103572.45
2018-12-29T06:52:26.329Z,103573.34
2018-12-29T06:54:55.669Z,103560.73
2018-12-29T06:57:25.043Z,103561.63
2018-12-29T06:59:54.384Z,103571.20
2018-12-29T07:02:24.801Z,103584.17
2018-12-29T07:04:54.179Z,103585.92
2018-12-29T07:07:23.522Z,103582.89
2018-12-29T07:09:52.937Z,103579.42
2018-12-29T07:12:22.344Z,103583.33
2018-12-29T07:14:51.690Z,103582.43
2018-12-29T07:17:21.056Z,103582.02
2018-12-29T07:19:50.438Z,103586.78
2018-12-29T07:22:19.775Z,103579.88
2018-12-29T07:24:49.140Z,103585.91
2018-12-29T07:27:18.511Z,103585.92
2018-12-29T07:29:47.850Z,103584.17
2018-12-29T07:32:19.261Z,103578.97
2018-12-29T07:34:48.589Z,103578.13
2018-12-29T07:37:17.962Z,103572.91
2018-12-29T07:39:47.302Z,103573.33
2018-12-29T07:42:16.667Z,103583.78
2018-12-29T07:44:46.036Z,103587.67
2018-12-29T07:47:15.378Z,103584.65
2018-12-29T07:49:44.738Z,103589.86
2018-12-29T07:52:14.094Z,103583.78
2018-12-29T07:54:43.457Z,103581.16
2018-12-29T07:57:30.565Z,103586.83
2018-12-29T07:59:59.939Z,103604.20
2018-12-29T08:02:29.278Z,103609.84
2018-12-29T08:04:58.641Z,103604.18
2018-12-29T08:07:27.986Z,103602.00
2018-12-29T08:09:57.361Z,103603.30
2018-12-29T08:12:26.758Z,103607.66
2018-12-29T08:14:56.095Z,103589.41
2018-12-29T08:17:25.457Z,103601.57
2018-12-29T08:19:55.024Z,103581.58
2018-12-29T08:22:24.374Z,103601.14
2018-12-29T08:24:53.814Z,103602.86
2018-12-29T08:27:25.491Z,103608.53
2018-12-29T08:29:54.847Z,103605.48
2018-12-29T08:32:24.222Z,103608.95
2018-12-29T08:34:53.564Z,103609.39
2018-12-29T08:37:22.953Z,103612.44
2018-12-29T08:39:52.294Z,103597.22
2018-12-29T08:42:21.669Z,103606.77
2018-12-29T08:44:51.023Z,103615.03
2018-12-29T08:47:20.445Z,103625.01
2018-12-29T08:49:49.793Z,103629.81
2018-12-29T08:52:19.147Z,103626.31
2018-12-29T08:54:48.537Z,103624.13
2018-12-29T08:57:17.883Z,103623.29
2018-12-29T08:59:47.275Z,103628.91
2018-12-29T09:02:16.613Z,103618.48
2018-12-29T09:04:47.054Z,103625.45
2018-12-29T09:07:16.461Z,103631.52
2018-12-29T09:09:45.830Z,103627.60
2018-12-29T09:12:15.196Z,103635.88
2018-12-29T09:14:44.587Z,103632.38
2018-12-29T09:17:13.963Z,103631.52
2018-12-29T09:19:43.358Z,103634.53
2018-12-29T09:22:12.702Z,103624.99
2018-12-29T09:24:42.165Z,103621.06
2018-12-29T09:27:11.548Z,103629.75
2018-12-29T09:29:40.930Z,103617.13
2018-12-29T09:32:14.727Z,103618.02
2018-12-29T09:34:44.111Z,103620.16
2018-12-29T09:37:13.510Z,103616.69
2018-12-29T09:39:42.878Z,103630.58
2018-12-29T09:42:12.213Z,103637.12
2018-12-29T09:44:41.567Z,103631.03
2018-12-29T09:47:10.951Z,103638.42
2018-12-29T09:49:40.329Z,103634.06
2018-12-29T09:52:09.711Z,103640.13
2018-12-29T09:54:39.088Z,103644.94
2018-12-29T09:57:08.503Z,103639.72
2018-12-29T09:59:37.859Z,103638.84
2018-12-29T10:02:07.247Z,103647.55
2018-12-29T10:04:36.602Z,103642.33
2018-12-29T10:07:05.979Z,103649.25
2018-12-29T10:09:35.325Z,103654.91
2018-12-29T10:12:04.722Z,103652.75
2018-12-29T10:14:34.094Z,103654.90
2018-12-29T10:17:03.435Z,103656.64
2018-12-29T10:19:32.827Z,103657.52
2018-12-29T10:22:02.218Z,103658.81
2018-12-29T10:24:31.589Z,103659.67
2018-12-29T10:27:00.984Z,103653.60
2018-12-29T10:29:30.361Z,103658.35
2018-12-29T10:31:59.730Z,103666.19
2018-12-29T10:34:29.118Z,103647.05
2018-12-29T10:36:58.467Z,103657.47
2018-12-29T10:39:27.830Z,103653.13
2018-12-29T10:41:57.174Z,103654.02
2018-12-29T10:44:26.649Z,103679.22
2018-12-29T10:46:55.991Z,103676.62
2018-12-29T10:49:25.385Z,103681.41
2018-12-29T10:51:54.737Z,103687.91
2018-12-29T10:54:24.124Z,103677.03
2018-12-29T10:56:53.508Z,103669.64
2018-12-29T10:59:22.867Z,103674.86
2018-12-29T11:01:52.249Z,103668.32
2018-12-29T11:04:21.746Z,103669.63
2018-12-29T11:06:51.152Z,103663.98
2018-12-29T11:09:20.572Z,103659.20
2018-12-29T11:11:49.984Z,103657.90
2018-12-29T11:14:19.347Z,103664.86
2018-12-29T11:16:49.968Z,103661.36
2018-12-29T11:19:19.364Z,103655.28
2018-12-29T11:21:48.753Z,103653.98
2018-12-29T11:24:18.148Z,103652.66
2018-12-29T11:26:47.526Z,103655.70
2018-12-29T11:29:16.873Z,103649.59
2018-12-29T11:31:46.256Z,103650.91
2018-12-29T11:34:15.596Z,103650.91
2018-12-29T11:36:44.967Z,103661.78
2018-12-29T11:39:14.334Z,103653.09
2018-12-29T11:41:43.738Z,103646.55
2018-12-29T11:44:13.107Z,103646.55
2018-12-29T11:46:42.522Z,103644.38
2018-12-29T11:49:17.968Z,103646.11
2018-12-29T11:51:42.950Z,103646.09
2018-12-29T11:54:12.331Z,103642.64
2018-12-29T11:56:41.705Z,103647.41
2018-12-29T11:59:11.269Z,103643.06
2018-12-29T12:01:40.656Z,103627.81
2018-12-29T12:04:10.053Z,103635.64
2018-12-29T12:06:39.407Z,103626.95
2018-12-29T12:09:08.894Z,103622.61
2018-12-29T12:11:38.285Z,103609.99
2018-12-29T12:14:07.679Z,103614.78
2018-12-29T12:16:37.058Z,103609.13
2018-12-29T12:19:06.478Z,103601.73
2018-12-29T12:21:36.230Z,103601.72
2018-12-29T12:24:05.605Z,103606.94
2018-12-29T12:26:34.993Z,103600.41
2018-12-29T12:29:04.354Z,103607.38
2018-12-29T12:31:34.021Z,103603.46
2018-12-29T12:34:03.400Z,103606.52
2018-12-29T12:36:33.024Z,103613.47
2018-12-29T12:39:02.374Z,103616.53
2018-12-29T12:41:32.053Z,103612.61
2018-12-29T12:44:01.567Z,103610.86
2018-12-29T12:46:30.948Z,103607.84
2018-12-29T12:49:00.694Z,103620.00
2018-12-29T12:51:30.062Z,103624.81
2018-12-29T12:53:59.425Z,103633.50
2018-12-29T12:56:28.831Z,103633.50
2018-12-29T12:58:58.195Z,103636.13
2018-12-29T13:01:27.865Z,103627.42
2018-12-29T13:03:57.225Z,103616.99
2018-12-29T13:06:26.601Z,103615.24
2018-12-29T13:08:56.122Z,103614.81
2018-12-29T13:11:25.859Z,103612.23
2018-12-29T13:13:55.285Z,103618.28
2018-12-29T13:16:24.712Z,103619.59
2018-12-29T13:18:54.086Z,103622.20
2018-12-29T13:21:23.494Z,103620.47
2018-12-29T13:23:53.124Z,103619.16
2018-12-29T13:26:22.518Z,103611.77
2018-12-29T13:28:53.674Z,103610.92
2018-12-29T13:31:23.183Z,103609.59
2018-12-29T13:33:52.524Z,103613.08
2018-12-29T13:36:21.900Z,103613.51
2018-12-29T13:38:51.303Z,103615.24
2018-12-29T13:41:20.661Z,103617.86
2018-12-29T13:43:50.058Z,103614.38
2018-12-29T13:46:19.796Z,103619.16
2018-12-29T13:48:49.186Z,103613.51
2018-12-29T13:51:18.559Z,103610.47
2018-12-29T13:53:47.925Z,103605.68
2018-12-29T13:56:17.271Z,103607.42
2018-12-29T13:58:46.640Z,103609.59
2018-12-29T14:01:16.117Z,103610.91
2018-12-29T14:03:45.482Z,103608.29
2018-12-29T14:06:14.860Z,103610.91
2018-12-29T14:08:44.198Z,103604.80
2018-12-29T14:11:13.612Z,103606.11
2018-12-29T14:13:42.967Z,103606.98
2018-12-29T14:16:12.382Z,103601.77
2018-12-29T14:18:41.789Z,103596.11
2018-12-29T14:21:11.419Z,103590.89
2018-12-29T14:23:40.815Z,103597.00
2018-12-29T14:26:10.173Z,103598.31
2018-12-29T14:28:39.558Z,103596.13
2018-12-29T14:31:08.988Z,103599.60
2018-12-29T14:33:38.423Z,103599.60
2018-12-29T14:36:07.834Z,103591.37
2018-12-29T14:38:37.208Z,103590.92
2018-12-29T14:41:06.613Z,103610.48
2018-12-29T14:43:35.960Z,103612.22
2018-12-29T14:46:05.332Z,103616.14
2018-12-29T14:48:36.081Z,103621.36
2018-12-29T14:51:05.566Z,103624.42
2018-12-29T14:53:34.966Z,103630.95
2018-12-29T14:56:04.311Z,103629.65
2018-12-29T14:58:33.727Z,103623.11
2018-12-29T15:01:03.093Z,103622.23
2018-12-29T15:03:32.489Z,103627.45
2018-12-29T15:06:01.891Z,103624.84
2018-12-29T15:08:31.269Z,103633.98
2018-12-29T15:11:00.621Z,103631.39
2018-12-29T15:13:30.387Z,103643.12
2018-12-29T15:15:59.822Z,103633.55
2018-12-29T15:18:29.355Z,103639.22
2018-12-29T15:20:58.988Z,103640.52
2018-12-29T15:23:28.355Z,103634.45
2018-12-29T15:25:57.737Z,103634.02
2018-12-29T15:28:27.111Z,103640.55
2018-12-29T15:30:56.479Z,103642.72
2018-12-29T15:33:25.842Z,103655.31
2018-12-29T15:35:55.337Z,103652.30
2018-12-29T15:38:24.723Z,103648.38
2018-12-29T15:40:54.350Z,103652.72
2018-12-29T15:43:23.707Z,103648.38
2018-12-29T15:45:53.104Z,103649.25
2018-12-29T15:48:22.735Z,103651.41
2018-12-29T15:50:52.182Z,103654.48
2018-12-29T15:53:21.573Z,103651.00
2018-12-29T15:55:50.945Z,103651.43
2018-12-29T15:58:20.562Z,103655.77
2018-12-29T16:00:50.046Z,103650.14
2018-12-29T16:03:19.404Z,103654.05
2018-12-29T16:05:48.942Z,103655.78
2018-12-29T16:08:19.358Z,103660.99
2018-12-29T16:10:48.740Z,103667.52
2018-12-29T16:13:18.089Z,103671.42
2018-12-29T16:15:47.492Z,103675.77
2018-12-29T16:18:16.895Z,103684.05
2018-12-29T16:20:53.109Z,103686.66
2018-12-29T16:23:17.360Z,103677.95
2018-12-29T16:25:46.927Z,103683.61
2018-12-29T16:28:16.295Z,103676.64
2018-12-29T16:30:45.679Z,103685.36
2018-12-29T16:33:15.135Z,103676.23
2018-12-29T16:35:44.804Z,103682.75
2018-12-29T16:38:14.442Z,103676.66
2018-12-29T16:40:43.870Z,103675.34
2018-12-29T16:43:13.298Z,103682.73
2018-12-29T16:45:42.657Z,103682.30
2018-12-29T16:48:12.186Z,103684.04
2018-12-29T16:50:41.563Z,103688.83
2018-12-29T16:53:10.995Z,103685.81
2018-12-29T16:55:40.409Z,103693.61
2018-12-29T16:58:09.845Z,103697.55
2018-12-29T17:00:39.182Z,103709.28
2018-12-29T17:03:08.555Z,103703.19
2018-12-29T17:05:37.922Z,103703.17
2018-12-29T17:08:07.313Z,103705.78
2018-12-29T17:10:37.693Z,103708.39
2018-12-29T17:13:07.058Z,103703.62
2018-12-29T17:15:36.468Z,103707.96
2018-12-29T17:18:06.296Z,103703.62
2018-12-29T17:20:35.672Z,103703.62
2018-12-29T17:23:05.056Z,103707.96
2018-12-29T17:25:34.706Z,103710.14
2018-12-29T17:28:04.095Z,103705.80
2018-12-29T17:30:33.521Z,103700.58
2018-12-29T17:33:02.887Z,103707.98
2018-12-29T17:35:32.558Z,103709.28
2018-12-29T17:38:01.930Z,103710.58
2018-12-29T17:40:31.299Z,103709.69
2018-12-29T17:43:00.727Z,103711.89
2018-12-29T17:45:30.072Z,103708.41
2018-12-29T17:47:59.510Z,103715.34
2018-12-29T17:50:29.170Z,103720.56
2018-12-29T17:52:58.551Z,103723.60
2018-12-29T17:55:27.932Z,103731.42
2018-12-29T17:57:59.842Z,103726.20
2018-12-29T18:00:30.280Z,103730.14
2018-12-29T18:03:00.639Z,103738.37
2018-12-29T18:05:30.100Z,103741.42
2018-12-29T18:07:59.517Z,103737.09
2018-12-29T18:10:29.186Z,103739.70
2018-12-29T18:12:58.887Z,103741.44
2018-12-29T18:15:28.276Z,103743.60
2018-12-29T18:17:57.721Z,103751.85
2018-12-29T18:20:27.111Z,103757.06
2018-12-29T18:22:56.505Z,103753.17
2018-12-29T18:25:25.862Z,103759.67
2018-12-29T18:27:55.310Z,103761.87
2018-12-29T18:30:24.677Z,103762.72
2018-12-29T18:32:54.077Z,103764.03
2018-12-29T18:35:23.483Z,103764.91
2018-12-29T18:37:52.916Z,103767.94
2018-12-29T18:40:22.317Z,103766.64
2018-12-29T18:42:52.121Z,103782.28
2018-12-29T18:45:21.559Z,103777.92
2018-12-29T18:47:50.914Z,103787.05
2018-12-29T18:50:20.337Z,103787.50
2018-12-29T18:52:49.755Z,103787.94
2018-12-29T18:55:19.194Z,103785.33
2018-12-29T18:57:48.767Z,103778.36
2018-12-29T19:00:18.180Z,103793.14
2018-12-29T19:02:47.563Z,103791.83
2018-12-29T19:05:16.942Z,103795.75
2018-12-29T19:07:46.336Z,103801.39
2018-12-29T19:10:15.748Z,103798.38
2018-12-29T19:12:46.147Z,103805.74
2018-12-29T19:15:15.547Z,103796.19
2018-12-29T19:17:45.327Z,103792.28
2018-12-29T19:20:15.178Z,103794.89
2018-12-29T19:22:44.581Z,103785.34
2018-12-29T19:25:13.995Z,103788.38
2018-12-29T19:27:43.420Z,103789.23
2018-12-29T19:30:12.874Z,103798.34
2018-12-29T19:32:42.279Z,103800.53
2018-12-29T19:35:12.018Z,103807.90
2018-12-29T19:37:41.365Z,103809.64
2018-12-29T19:40:10.736Z,103812.27
2018-12-29T19:42:40.272Z,103807.89
2018-12-29T19:45:09.681Z,103806.16
2018-12-29T19:47:39.057Z,103801.38
2018-12-29T19:50:08.837Z,103800.53
2018-12-29T19:52:38.267Z,103805.75
2018-12-29T19:55:07.718Z,103808.77
2018-12-29T19:57:37.226Z,103814.00
2018-12-29T20:00:08.325Z,103817.02
2018-12-29T20:02:38.081Z,103809.66
2018-12-29T20:05:07.854Z,103803.14
2018-12-29T20:07:37.308Z,103807.91
2018-12-29T20:10:07.132Z,103802.70
2018-12-29T20:12:36.610Z,103809.19
2018-12-29T20:15:09.009Z,103800.94
2018-12-29T20:17:38.729Z,103803.98
2018-12-29T20:20:08.178Z,103802.69
2018-12-29T20:22:37.550Z,103808.34
2018-12-29T20:25:07.273Z,103806.59
2018-12-29T20:27:36.635Z,103804.87
2018-12-29T20:30:06.959Z,103800.08
2018-12-29T20:32:36.424Z,103803.98
2018-12-29T20:35:05.848Z,103797.47
2018-12-29T20:37:35.253Z,103802.26
2018-12-29T20:40:04.848Z,103803.55
2018-12-29T20:42:34.307Z,103806.15
2018-12-29T20:45:04.043Z,103795.31
2018-12-29T20:47:33.434Z,103796.61
2018-12-29T20:50:09.560Z,103795.73
2018-12-29T20:52:33.991Z,103793.14
2018-12-29T20:55:04.151Z,103794.45
2018-12-29T20:57:33.534Z,103791.84
2018-12-29T21:00:02.918Z,103789.23
2018-12-29T21:02:32.333Z,103791.38
2018-12-29T21:05:01.689Z,103787.94
2018-12-29T21:07:31.219Z,103789.66
2018-12-29T21:10:00.686Z,103793.57
2018-12-29T21:12:30.407Z,103784.45
2018-12-29T21:14:59.913Z,103790.53
2018-12-29T21:17:29.395Z,103782.72
2018-12-29T21:19:59.051Z,103782.28
2018-12-29T21:22:28.668Z,103782.69
2018-12-29T21:24:58.120Z,103780.97
2018-12-29T21:27:27.536Z,103774.02
2018-12-29T21:29:56.959Z,103772.72
2018-12-29T21:32:26.798Z,103767.94
2018-12-29T21:34:57.241Z,103769.23
2018-12-29T21:37:26.932Z,103770.53
2018-12-29T21:39:56.408Z,103771.41
2018-12-29T21:42:25.893Z,103775.75
2018-12-29T21:44:55.374Z,103775.31
2018-12-29T21:47:24.868Z,103777.50
2018-12-29T21:49:54.266Z,103768.36
2018-12-29T21:52:23.728Z,103774.02
2018-12-29T21:54:53.201Z,103779.66
2018-12-29T21:57:22.620Z,103771.41
2018-12-29T21:59:51.963Z,103768.36
2018-12-29T22:02:21.345Z,103777.48
2018-12-29T22:04:50.719Z,103776.64
2018-12-29T22:07:20.217Z,103776.17
2018-12-29T22:09:49.581Z,103779.25
2018-12-29T22:12:18.961Z,103780.53
2018-12-29T22:14:48.352Z,103780.53
2018-12-29T22:17:17.704Z,103776.17
2018-12-29T22:19:47.065Z,103784.45
2018-12-29T22:22:16.432Z,103781.39
2018-12-29T22:24:46.105Z,103774.45
2018-12-29T22:27:15.447Z,103773.16
2018-12-29T22:29:44.799Z,103776.64
2018-12-29T22:32:14.163Z,103782.69
2018-12-29T22:34:43.522Z,103778.36
2018-12-29T22:37:13.275Z,103792.27
2018-12-29T22:39:42.656Z,103795.30
2018-12-29T22:42:11.994Z,103799.22
2018-12-29T22:44:41.397Z,103794.01
2018-12-29T22:47:10.750Z,103790.52
2018-12-29T22:49:40.394Z,103789.20
2018-12-29T22:52:09.737Z,103790.97
2018-12-29T22:54:39.116Z,103791.40
2018-12-29T22:57:08.477Z,103791.83
2018-12-29T22:59:37.898Z,103789.65
2018-12-29T23:02:07.502Z,103795.75
2018-12-29T23:04:36.849Z,103802.27
2018-12-29T23:07:06.602Z,103804.88
2018-12-29T23:09:35.947Z,103803.57
2018-12-29T23:12:06.476Z,103809.64
2018-12-29T23:14:50.995Z,103807.45
2018-12-29T23:17:20.344Z,103807.88
2018-12-29T23:19:49.729Z,103813.52
2018-12-29T23:22:19.077Z,103807.01
2018-12-29T23:24:49.219Z,103810.49
2018-12-29T23:27:18.586Z,103817.01
2018-12-29T23:29:47.958Z,103808.31
2018-12-29T23:32:17.390Z,103802.67
2018-12-29T23:34:46.761Z,103810.08
2018-12-29T23:37:16.141Z,103821.80
2018-12-29T23:39:45.485Z,103823.96
2018-12-29T23:42:14.842Z,103818.75
2018-12-29T23:44:44.232Z,103818.75
2018-12-29T23:47:13.582Z,103819.63
2018-12-29T23:49:42.950Z,103816.57
2018-12-29T23:52:12.606Z,103815.27
2018-12-29T23:54:44.076Z,103816.57
2018-12-29T23:57:13.596Z,103818.75
2018-12-29T23:59:42.975Z,103816.57
